Time;durP1;ratioP1;P1;durP2;ratioP2;P2;SDS_P1;SDS_P2;PMS_P1;PMS_P2;Temp;Humidity;BMP_temperature;BMP_pressure;BME280_temperature;BME280_humidity;BME280_pressure;Samples;Min_cycle;Max_cycle;Signal;HPM_P1;HPM_P2
2022/11/16 00:02:17;;;;;;;0.70;0.70;;;13.10;99.90;13.80;99546.00;;;;5053970;28;20272;-68
2022/11/16 00:04:43;;;;;;;0.50;0.50;;;13.10;99.90;13.70;99582.00;;;;5054599;28;20212;-68
2022/11/16 00:07:09;;;;;;;0.70;0.70;;;13.10;99.90;13.50;99593.00;;;;5053921;28;20209;-68
2022/11/16 00:09:35;;;;;;;0.50;0.50;;;13.00;99.90;13.70;99590.00;;;;5054558;28;20201;-68
2022/11/16 00:12:06;;;;;;;0.93;0.93;;;13.00;99.90;14.10;99587.00;;;;5052392;28;20964;-68
2022/11/16 00:14:34;;;;;;;0.50;0.50;;;13.20;99.90;13.70;99588.00;;;;5054368;28;20245;-68
2022/11/16 00:17:01;;;;;;;0.63;0.63;;;13.10;99.90;14.20;99584.00;;;;5053752;28;20179;-68
2022/11/16 00:19:28;;;;;;;1.23;1.23;;;13.30;99.90;14.10;99569.00;;;;5054269;28;20609;-68
2022/11/16 00:21:54;;;;;;;0.70;0.70;;;13.30;99.90;14.60;99573.00;;;;5054092;28;20184;-68
2022/11/16 00:24:22;;;;;;;0.80;0.80;;;13.40;99.90;14.80;99555.00;;;;5037190;28;20187;-68
2022/11/16 00:26:48;;;;;;;1.33;1.23;;;13.70;99.90;14.10;99553.00;;;;5055107;28;20536;-68
2022/11/16 00:29:24;;;;;;;0.80;0.80;;;13.30;99.90;14.40;99553.00;;;;5053529;28;20215;-68
2022/11/16 00:31:52;;;;;;;0.90;0.90;;;13.30;99.90;14.40;99541.00;;;;5036482;28;20302;-68
2022/11/16 00:34:18;;;;;;;0.73;0.73;;;13.40;99.90;13.50;99555.00;;;;5053375;28;20253;-68
2022/11/16 00:36:45;;;;;;;1.03;1.03;;;13.00;99.90;13.40;99562.00;;;;5054157;28;20182;-68
2022/11/16 00:39:13;;;;;;;0.90;0.90;;;12.90;99.90;13.30;99553.00;;;;5035850;28;20273;-68
2022/11/16 00:41:40;;;;;;;3.13;3.03;;;12.70;99.90;13.00;99564.00;;;;5053589;28;20201;-68
2022/11/16 00:44:07;;;;;;;1.00;1.00;;;12.70;99.90;14.00;99554.00;;;;5053670;28;20193;-68
2022/11/16 00:46:33;;;;;;;0.90;0.90;;;12.80;99.90;13.60;99524.00;;;;5053367;28;20179;-68
2022/11/16 00:48:59;;;;;;;0.80;0.80;;;12.80;99.90;13.00;99567.00;;;;5054302;28;20239;-68
2022/11/16 00:51:24;;;;;;;0.90;0.90;;;12.60;99.90;13.30;99530.00;;;;5054783;28;20457;-68
2022/11/16 00:53:50;;;;;;;0.90;0.90;;;12.50;99.90;13.10;99566.00;;;;5052893;28;20589;-68
2022/11/16 00:56:16;;;;;;;0.80;0.80;;;12.50;99.90;12.90;99567.00;;;;5052534;28;20543;-68
2022/11/16 00:58:42;;;;;;;0.80;0.80;;;12.30;99.90;13.50;99564.00;;;;5052944;28;20186;-68
2022/11/16 01:01:12;;;;;;;0.80;0.80;;;12.50;99.90;13.00;99553.00;;;;5052681;28;20650;-68
2022/11/16 01:03:38;;;;;;;0.70;0.70;;;12.40;99.90;12.60;99550.00;;;;5053345;28;20186;-67
2022/11/16 01:06:12;;;;;;;0.80;0.80;;;12.20;99.90;13.00;99554.00;;;;5052880;28;20226;-67
2022/11/16 01:08:40;;;;;;;0.90;0.90;;;12.20;99.90;13.00;99563.00;;;;5052815;28;20215;-68
2022/11/16 01:13:53;;;;;;;1.00;1.00;;;12.20;99.90;13.40;99563.00;;;;5042133;28;20259;-68
2022/11/16 01:16:21;;;;;;;0.97;0.97;;;12.30;99.90;13.40;99554.00;;;;5052748;28;20186;-68
2022/11/16 01:18:49;;;;;;;0.97;0.97;;;12.40;99.90;13.50;99563.00;;;;5052750;28;20217;-68
2022/11/16 01:21:16;;;;;;;1.10;1.10;;;12.40;99.90;12.90;99564.00;;;;5052923;28;20188;-68
2022/11/16 01:23:42;;;;;;;1.00;1.00;;;12.30;99.90;12.90;99513.00;;;;5052659;28;20195;-68
2022/11/16 01:26:08;;;;;;;0.90;0.90;;;12.20;99.90;13.10;99543.00;;;;5052807;28;20539;-67
2022/11/16 01:28:34;;;;;;;0.90;0.90;;;12.20;99.90;12.90;99555.00;;;;5052454;28;20252;-68
2022/11/16 01:31:05;;;;;;;1.00;1.00;;;12.20;99.90;13.30;99569.00;;;;5052217;28;20551;-68
2022/11/16 01:33:31;;;;;;;0.90;0.90;;;12.30;99.90;12.70;99516.00;;;;5053797;28;20644;-68
2022/11/16 01:36:07;;;;;;;0.90;0.90;;;12.10;99.90;12.50;99557.00;;;;5052460;28;20196;-68
2022/11/16 01:38:35;;;;;;;0.90;0.90;;;12.00;99.90;12.70;99566.00;;;;5052745;28;20609;-68
2022/11/16 01:41:25;;;;;;;0.90;0.90;;;12.00;99.90;13.00;99560.00;;;;5052353;28;20198;-68
2022/11/16 01:43:53;;;;;;;1.10;1.10;;;12.10;99.90;13.20;99554.00;;;;5066935;28;20238;-68
2022/11/16 01:46:20;;;;;;;1.30;1.30;;;12.20;99.90;13.00;99557.00;;;;5052378;28;20183;-68
2022/11/16 01:49:09;;;;;;;1.00;1.00;;;12.20;99.90;12.80;99548.00;;;;5052353;28;20193;-68
2022/11/16 01:51:37;;;;;;;1.20;1.20;;;12.10;99.90;13.20;99556.00;;;;5047445;28;20208;-68
2022/11/16 01:54:07;;;;;;;1.00;1.00;;;12.20;99.90;13.00;99526.00;;;;5049422;28;20199;-68
2022/11/16 01:56:37;;;;;;;1.10;1.10;;;12.20;99.90;13.30;99566.00;;;;5051984;28;20233;-68
2022/11/16 01:59:03;;;;;;;1.30;1.27;;;12.40;99.90;12.90;99553.00;;;;5044003;28;20183;-68
2022/11/16 02:01:29;;;;;;;0.90;0.90;;;12.30;99.90;12.80;99564.00;;;;5052155;28;20223;-68
2022/11/16 02:03:55;;;;;;;1.00;1.00;;;12.00;99.90;12.90;99571.00;;;;5052080;28;20222;-68
2022/11/16 02:06:42;;;;;;;0.90;0.90;;;12.10;99.90;12.80;99523.00;;;;5034801;28;20268;-68
2022/11/16 02:09:53;;;;;;;1.00;1.00;;;12.10;99.90;12.40;99565.00;;;;5048538;28;20758;-68
2022/11/16 02:12:22;;;;;;;0.80;0.80;;;11.90;99.90;12.60;99527.00;;;;5051740;28;20642;-68
2022/11/16 02:14:57;;;;;;;0.90;0.90;;;11.90;99.90;12.20;99575.00;;;;5052822;28;20700;-68
2022/11/16 02:18:09;;;;;;;1.00;1.00;;;11.80;99.90;12.60;99574.00;;;;5053123;28;20182;-68
2022/11/16 02:20:47;;;;;;;0.90;0.90;;;11.80;99.90;12.60;99573.00;;;;5052957;28;20187;-68
2022/11/16 02:23:31;;;;;;;1.30;1.30;;;12.00;99.90;12.70;99533.00;;;;5051686;28;20639;-68
2022/11/16 02:26:43;;;;;;;0.90;0.90;;;11.90;99.90;12.70;99577.00;;;;5037538;28;20238;-68
2022/11/16 02:29:36;;;;;;;1.03;1.03;;;12.00;99.90;12.70;99572.00;;;;5043851;28;20242;-69
2022/11/16 02:32:15;;;;;;;1.00;1.00;;;12.00;99.90;12.70;99572.00;;;;5032702;28;20214;-68
2022/11/16 02:34:55;;;;;;;1.10;1.10;;;12.00;99.90;13.00;99565.00;;;;5034946;28;20186;-68
2022/11/16 02:37:24;;;;;;;1.20;1.20;;;12.00;99.90;12.90;99560.00;;;;5051633;28;20643;-68
2022/11/16 02:39:58;;;;;;;1.30;1.30;;;12.10;99.90;13.00;99567.00;;;;5051342;28;20188;-68
2022/11/16 02:42:36;;;;;;;1.30;1.30;;;12.10;99.90;13.10;99554.00;;;;5033731;28;20188;-68
2022/11/16 02:45:05;;;;;;;1.30;1.30;;;12.10;99.90;12.90;99560.00;;;;5065512;28;20206;-68
2022/11/16 02:47:33;;;;;;;1.10;1.10;;;12.00;99.90;13.00;99518.00;;;;5051633;28;20280;-68
2022/11/16 02:50:14;;;;;;;1.20;1.20;;;12.00;99.90;12.50;99573.00;;;;5034469;28;20187;-68
2022/11/16 02:52:41;;;;;;;1.10;1.10;;;12.00;99.90;12.80;99577.00;;;;5034863;28;20238;-69
2022/11/16 02:55:08;;;;;;;1.10;1.10;;;11.90;99.90;12.20;99572.00;;;;5053071;28;20183;-68
2022/11/16 02:57:56;;;;;;;0.80;0.80;;;11.80;99.90;11.90;99528.00;;;;5051075;28;20176;-68
2022/11/16 03:00:27;;;;;;;0.80;0.80;;;11.50;99.90;12.10;99582.00;;;;5052381;28;20174;-69
2022/11/16 03:03:34;;;;;;;0.90;0.90;;;11.40;99.90;12.30;99577.00;;;;5051263;28;20209;-69
2022/11/16 03:06:07;;;;;;;0.80;0.80;;;11.50;99.90;12.10;99572.00;;;;5045881;28;20189;-68
2022/11/16 03:08:50;;;;;;;0.90;0.90;;;11.40;99.90;12.20;99551.00;;;;5051561;28;20179;-69
2022/11/16 03:14:08;;;;;;;0.80;0.80;;;11.30;99.90;12.00;99579.00;;;;5041427;28;20668;-69
2022/11/16 03:16:42;;;;;;;0.90;0.90;;;11.30;99.90;12.10;99580.00;;;;5051078;28;20187;-69
2022/11/16 03:19:14;;;;;;;1.00;1.00;;;11.30;99.90;12.10;99579.00;;;;5053689;28;20185;-69
2022/11/16 03:22:14;;;;;;;0.80;0.80;;;11.30;99.90;11.60;99574.00;;;;5054625;28;20270;-69
2022/11/16 03:24:44;;;;;;;0.90;0.90;;;11.20;99.90;11.80;99586.00;;;;5054818;28;20178;-69
2022/11/16 03:27:15;;;;;;;1.10;1.10;;;11.10;99.90;11.90;99593.00;;;;5054480;28;20182;-69
2022/11/16 03:29:58;;;;;;;0.80;0.80;;;11.10;99.90;11.50;99530.00;;;;5047302;28;20181;-68
2022/11/16 03:33:08;;;;;;;0.90;0.90;;;11.00;99.90;12.00;99584.00;;;;5066999;28;20806;-69
2022/11/16 03:35:57;;;;;;;0.90;0.90;;;11.00;99.90;11.80;99524.00;;;;5038209;28;20630;-69
2022/11/16 03:38:25;;;;;;;1.17;1.17;;;11.10;99.90;11.70;99588.00;;;;5055604;28;20223;-69
2022/11/16 03:40:56;;;;;;;1.00;1.00;;;11.10;99.90;11.90;99585.00;;;;5054688;28;20649;-69
2022/11/16 03:43:25;;;;;;;0.90;0.90;;;11.10;99.90;11.80;99580.00;;;;5038173;28;20708;-69
2022/11/16 03:45:52;;;;;;;0.90;0.90;;;11.00;99.90;11.50;99588.00;;;;5054764;28;20705;-69
2022/11/16 03:48:18;;;;;;;0.90;0.90;;;10.90;99.90;11.50;99594.00;;;;5054649;28;20187;-69
2022/11/16 03:50:44;;;;;;;0.80;0.80;;;10.80;99.90;11.50;99594.00;;;;5055458;28;20189;-69
2022/11/16 03:53:10;;;;;;;1.00;1.00;;;10.80;99.90;11.50;99581.00;;;;5053968;28;20202;-69
2022/11/16 03:55:36;;;;;;;0.80;0.80;;;10.80;99.90;11.40;99533.00;;;;5054546;28;20524;-68
2022/11/16 03:58:03;;;;;;;0.90;0.90;;;10.80;99.90;11.40;99553.00;;;;5054509;28;20174;-68
2022/11/16 04:00:29;;;;;;;0.90;0.90;;;10.70;99.90;11.10;99593.00;;;;5055316;28;20566;-69
2022/11/16 04:02:55;;;;;;;0.90;0.90;;;10.60;99.90;11.20;99594.00;;;;5053799;28;20193;-69
2022/11/16 04:25:40;;;;;;;0.70;0.70;;;10.30;99.90;10.90;99593.00;;;;5054725;28;20192;-68
2022/11/16 04:28:21;;;;;;;0.90;0.90;;;10.30;99.90;10.90;99602.00;;;;5053634;28;20194;-68
2022/11/16 04:39:23;;;;;;;0.80;0.80;;;10.20;99.90;11.00;99590.00;;;;5053417;28;20238;-69
2022/11/16 04:47:48;;;;;;;0.70;0.70;;;10.20;99.90;10.80;99540.00;;;;5023898;28;20232;-69
2022/11/16 04:50:15;;;;;;;0.60;0.60;;;10.20;99.90;10.60;99588.00;;;;5052744;28;20271;-69
2022/11/16 04:52:44;;;;;;;0.70;0.70;;;10.10;99.90;10.60;99596.00;;;;5033515;28;20336;-68
2022/11/16 04:55:11;;;;;;;0.70;0.70;;;10.10;99.90;10.50;99593.00;;;;5036974;28;20268;-68
2022/11/16 04:57:38;;;;;;;0.60;0.60;;;10.10;99.90;10.50;99611.00;;;;5053028;28;20183;-68
2022/11/16 05:00:08;;;;;;;0.73;0.73;;;10.10;99.90;10.70;99597.00;;;;5054386;28;20189;-68
2022/11/16 05:02:39;;;;;;;0.60;0.60;;;10.10;99.90;10.60;99585.00;;;;5036592;28;20258;-68
2022/11/16 05:05:06;;;;;;;0.80;0.80;;;10.10;99.90;10.40;99595.00;;;;5036126;28;20216;-68
2022/11/16 05:07:32;;;;;;;1.03;0.90;;;10.00;99.90;10.30;99554.00;;;;5054235;28;20272;-68
2022/11/16 05:09:58;;;;;;;0.60;0.60;;;10.00;99.90;10.20;99613.00;;;;5052770;28;20180;-68
2022/11/16 05:12:27;;;;;;;18.33;1.67;;;9.90;99.90;10.30;99627.00;;;;5052572;28;20627;-69
2022/11/16 05:14:54;;;;;;;0.80;0.80;;;9.90;99.90;10.30;99613.00;;;;5052550;28;20174;-69
2022/11/16 05:17:21;;;;;;;2.00;1.57;;;9.90;99.90;10.30;99627.00;;;;5054326;28;20247;-68
2022/11/16 05:22:32;;;;;;;0.50;0.50;;;9.90;99.90;10.60;99608.00;;;;5045440;28;20208;-69
2022/11/16 05:24:59;;;;;;;0.50;0.50;;;10.00;99.90;10.60;99617.00;;;;5052879;28;20184;-68
2022/11/16 05:27:27;;;;;;;0.60;0.60;;;10.00;99.90;10.70;99605.00;;;;5052642;28;20184;-69
2022/11/16 05:29:54;;;;;;;1.63;1.60;;;10.00;99.90;10.40;99604.00;;;;5052413;28;20189;-68
2022/11/16 05:32:21;;;;;;;3.13;2.83;;;10.00;99.90;10.10;99618.00;;;;5052298;28;20598;-69
2022/11/16 05:34:47;;;;;;;0.80;0.80;;;9.90;99.90;10.20;99628.00;;;;5052103;28;20276;-69
2022/11/16 05:37:14;;;;;;;0.40;0.40;;;9.80;99.90;10.20;99615.00;;;;5052204;28;20220;-68
2022/11/16 05:39:41;;;;;;;1.33;1.33;;;9.80;99.90;10.30;99627.00;;;;5052561;28;20195;-69
2022/11/16 05:42:07;;;;;;;0.60;0.60;;;9.80;99.90;10.20;99613.00;;;;5052060;28;20196;-69
2022/11/16 05:44:34;;;;;;;4.40;1.20;;;9.80;99.90;9.90;99628.00;;;;5052303;28;20526;-69
2022/11/16 05:47:02;;;;;;;4.20;0.80;;;9.70;99.90;10.20;99573.00;;;;5050004;28;20186;-69
2022/11/16 05:49:37;;;;;;;0.90;0.90;;;9.70;99.90;10.00;99632.00;;;;5035436;28;20611;-69
2022/11/16 05:52:03;;;;;;;0.97;0.97;;;9.70;99.90;10.00;99625.00;;;;5053464;28;20205;-69
2022/11/16 05:54:30;;;;;;;3.73;3.60;;;9.70;99.90;9.80;99632.00;;;;5053417;28;20239;-69
2022/11/16 05:56:56;;;;;;;2.20;1.30;;;9.60;99.90;10.00;99639.00;;;;5032355;28;20190;-69
2022/11/16 05:59:23;;;;;;;0.60;0.60;;;9.60;99.90;9.80;99641.00;;;;5042013;28;20664;-69
2022/11/16 06:01:50;;;;;;;0.70;0.70;;;9.60;99.90;9.90;99627.00;;;;5063626;28;20348;-69
2022/11/16 06:04:17;;;;;;;0.60;0.60;;;9.60;99.90;10.00;99642.00;;;;5051263;28;20200;-69
2022/11/16 06:06:43;;;;;;;0.87;0.87;;;9.60;99.90;9.70;99631.00;;;;5052017;28;20195;-69
2022/11/16 06:09:11;;;;;;;2.10;1.63;;;9.50;99.90;9.90;99630.00;;;;5051731;28;20184;-69
2022/11/16 06:11:37;;;;;;;0.70;0.70;;;9.60;99.90;9.80;99627.00;;;;5052805;28;20201;-68
2022/11/16 06:14:04;;;;;;;0.90;0.90;;;9.50;99.90;9.90;99628.00;;;;5042442;28;20200;-69
2022/11/16 06:16:48;;;;;;;0.73;0.73;;;9.50;99.90;9.70;99634.00;;;;5051718;28;20186;-69
2022/11/16 06:19:14;;;;;;;0.70;0.70;;;9.50;99.90;9.80;99626.00;;;;5034942;28;20248;-69
2022/11/16 06:21:40;;;;;;;1.00;1.00;;;9.50;99.90;9.70;99632.00;;;;5052848;28;20200;-69
2022/11/16 06:24:08;;;;;;;0.90;0.90;;;9.50;99.90;9.60;99637.00;;;;5051749;28;20548;-69
2022/11/16 06:26:37;;;;;;;0.60;0.60;;;9.40;99.90;9.50;99642.00;;;;5049873;28;20192;-69
2022/11/16 06:29:06;;;;;;;0.70;0.70;;;9.30;99.90;9.80;99646.00;;;;5053076;28;20192;-69
2022/11/16 06:31:31;;;;;;;0.60;0.60;;;9.40;99.90;9.60;99641.00;;;;5052610;28;20288;-69
2022/11/16 06:33:57;;;;;;;0.70;0.70;;;9.40;99.90;9.50;99589.00;;;;5051317;28;20279;-69
2022/11/16 06:36:30;;;;;;;0.60;0.60;;;9.30;99.90;9.60;99647.00;;;;5051718;28;20270;-69
2022/11/16 06:39:10;;;;;;;0.60;0.60;;;9.30;99.90;9.70;99648.00;;;;5052937;28;20184;-69
2022/11/16 06:41:36;;;;;;;0.60;0.60;;;9.30;99.90;9.50;99648.00;;;;5051418;28;20198;-69
2022/11/16 06:44:01;;;;;;;1.57;1.47;;;9.30;99.90;9.70;99654.00;;;;5051538;28;20191;-69
2022/11/16 06:46:27;;;;;;;9.00;1.37;;;9.30;99.90;9.80;99641.00;;;;5052886;28;20195;-69
2022/11/16 06:49:22;;;;;;;3.33;1.73;;;9.30;99.90;9.50;99648.00;;;;5052723;28;20227;-69
2022/11/16 06:51:48;;;;;;;0.80;0.80;;;9.30;99.90;9.30;99627.00;;;;5028770;28;20653;-69
2022/11/16 06:54:14;;;;;;;0.50;0.50;;;9.20;99.90;9.40;99644.00;;;;5053790;28;20191;-69
2022/11/16 06:56:40;;;;;;;0.73;0.73;;;9.10;99.90;9.40;99649.00;;;;5055581;28;20201;-68
2022/11/16 06:59:12;;;;;;;0.60;0.60;;;9.10;99.90;9.60;99632.00;;;;5055735;28;20249;-69
2022/11/16 07:01:38;;;;;;;1.07;1.07;;;9.20;99.90;9.60;99647.00;;;;5046142;28;20232;-70
2022/11/16 07:04:10;;;;;;;0.83;0.83;;;9.20;99.90;9.30;99652.00;;;;5052910;28;20195;-69
2022/11/16 07:06:37;;;;;;;1.23;1.13;;;9.10;99.90;9.20;99640.00;;;;5038744;28;20197;-69
2022/11/16 07:09:08;;;;;;;0.70;0.70;;;9.10;99.90;9.50;99660.00;;;;5055706;28;20275;-69
2022/11/16 07:11:35;;;;;;;2.63;2.07;;;9.20;99.90;9.20;99659.00;;;;5043705;28;20239;-69
2022/11/16 07:14:18;;;;;;;0.60;0.60;;;9.10;99.90;9.40;99656.00;;;;5055292;28;20271;-69
2022/11/16 07:16:44;;;;;;;0.77;0.77;;;9.10;99.90;9.30;99659.00;;;;5054905;28;20195;-69
2022/11/16 07:19:13;;;;;;;0.60;0.60;;;9.10;99.90;9.30;99660.00;;;;5056596;28;20187;-69
2022/11/16 07:21:39;;;;;;;0.90;0.90;;;9.10;99.90;9.40;99663.00;;;;5056255;28;20195;-69
2022/11/16 07:24:09;;;;;;;0.60;0.60;;;9.10;99.90;9.20;99643.00;;;;5041292;28;20557;-69
2022/11/16 07:26:35;;;;;;;0.60;0.60;;;9.10;99.90;9.40;99659.00;;;;5055849;28;20202;-69
2022/11/16 07:29:01;;;;;;;0.87;0.87;;;9.20;99.90;9.50;99655.00;;;;5055040;28;20272;-69
2022/11/16 07:31:27;;;;;;;0.67;0.67;;;9.20;99.90;9.40;99641.00;;;;5055156;28;20211;-69
2022/11/16 07:33:53;;;;;;;0.93;0.93;;;9.20;99.90;9.30;99663.00;;;;5054791;28;20274;-69
2022/11/16 07:36:19;;;;;;;0.60;0.60;;;9.20;99.90;9.50;99654.00;;;;5055777;28;20270;-69
2022/11/16 07:38:45;;;;;;;0.77;0.77;;;9.30;99.90;9.40;99602.00;;;;5054676;28;20191;-69
2022/11/16 07:41:18;;;;;;;1.47;1.30;;;9.20;99.90;9.60;99613.00;;;;5034657;28;20547;-69
2022/11/16 07:43:44;;;;;;;1.00;1.00;;;9.30;99.90;9.60;99644.00;;;;5047891;28;20235;-69
2022/11/16 07:46:19;;;;;;;0.80;0.80;;;9.30;99.90;9.50;99653.00;;;;5053706;28;20545;-69
2022/11/16 07:48:46;;;;;;;0.80;0.80;;;9.30;99.90;9.60;99651.00;;;;5054382;28;20195;-69
2022/11/16 07:51:33;;;;;;;4.03;2.50;;;9.40;99.90;9.60;99651.00;;;;5037978;28;20682;-69
2022/11/16 07:53:59;;;;;;;2.97;1.50;;;9.40;99.90;9.60;99657.00;;;;5049061;28;20230;-69
2022/11/16 07:56:31;;;;;;;2.53;1.00;;;9.40;99.90;9.50;99664.00;;;;5052703;28;20574;-69
2022/11/16 07:59:15;;;;;;;0.60;0.60;;;9.40;99.90;9.80;99642.00;;;;5054463;28;20287;-69
2022/11/16 08:01:41;;;;;;;0.60;0.60;;;9.50;99.90;9.60;99616.00;;;;5054964;28;20225;-69
2022/11/16 08:04:08;;;;;;;0.87;0.87;;;9.50;99.90;9.80;99619.00;;;;5053642;28;20196;-69
2022/11/16 08:06:34;;;;;;;0.70;0.70;;;9.50;99.90;9.60;99656.00;;;;5055231;28;20191;-69
2022/11/16 08:09:00;;;;;;;26.97;2.50;;;9.50;99.90;9.70;99645.00;;;;5055245;28;20184;-70
2022/11/16 08:11:26;;;;;;;0.70;0.70;;;9.50;99.90;9.70;99610.00;;;;5046886;28;20197;-69
2022/11/16 08:13:58;;;;;;;1.03;1.03;;;9.60;99.90;9.80;99664.00;;;;5037329;28;20186;-69
2022/11/16 08:16:24;;;;;;;0.60;0.60;;;9.60;99.90;10.00;99662.00;;;;5053076;28;20189;-69
2022/11/16 08:18:50;;;;;;;0.70;0.70;;;9.70;99.90;10.00;99668.00;;;;5053283;28;20194;-70
2022/11/16 08:21:18;;;;;;;0.67;0.67;;;9.70;99.90;9.80;99664.00;;;;5041999;28;20192;-69
2022/11/16 08:23:47;;;;;;;1.30;1.20;;;9.70;99.90;9.80;99655.00;;;;5053485;28;20191;-69
2022/11/16 08:26:17;;;;;;;0.80;0.80;;;9.70;99.90;10.30;99648.00;;;;5037874;28;20268;-69
2022/11/16 08:28:46;;;;;;;1.00;1.00;;;9.90;99.90;10.10;99656.00;;;;5049432;28;20212;-69
2022/11/16 08:31:15;;;;;;;0.63;0.63;;;9.90;99.90;10.20;99650.00;;;;5049142;28;20206;-70
2022/11/16 08:33:42;;;;;;;1.33;1.23;;;10.00;99.90;10.10;99646.00;;;;5053143;28;20212;-69
2022/11/16 08:36:16;;;;;;;1.80;1.00;;;9.90;99.90;10.00;99634.00;;;;5046083;28;20174;-69
2022/11/16 08:38:49;;;;;;;2.60;1.97;;;9.90;99.90;10.20;99644.00;;;;5053609;28;20197;-69
2022/11/16 08:41:24;;;;;;;0.87;0.87;;;10.00;99.90;10.10;99626.00;;;;5036638;28;20609;-69
2022/11/16 08:43:52;;;;;;;0.87;0.73;;;10.00;99.90;10.30;99637.00;;;;5051670;28;20192;-69
2022/11/16 08:46:19;;;;;;;0.60;0.60;;;10.20;99.90;10.40;99642.00;;;;5053956;28;20246;-69
2022/11/16 08:48:45;;;;;;;0.67;0.63;;;10.20;99.90;10.30;99638.00;;;;5053348;28;20200;-69
2022/11/16 08:51:17;;;;;;;1.43;0.80;;;10.20;99.90;10.70;99631.00;;;;5053889;28;20232;-70
2022/11/16 08:53:46;;;;;;;3.30;1.07;;;10.30;99.90;10.60;99635.00;;;;5020929;28;20198;-70
2022/11/16 08:56:16;;;;;;;0.83;0.83;;;10.50;99.90;10.60;99628.00;;;;5053345;28;20191;-70
2022/11/16 08:58:43;;;;;;;1.30;0.87;;;10.50;99.90;11.20;99642.00;;;;5052671;28;20209;-70
2022/11/16 09:01:18;;;;;;;1.20;1.10;;;10.70;99.90;11.10;99626.00;;;;5052371;28;20175;-70
2022/11/16 09:04:07;;;;;;;0.50;0.50;;;10.90;99.90;11.50;99620.00;;;;5051812;28;20672;-70
2022/11/16 09:06:46;;;;;;;1.07;1.00;;;11.10;99.90;11.20;99630.00;;;;5044295;28;20558;-70
2022/11/16 09:09:52;;;;;;;0.40;0.40;;;11.10;99.90;11.30;99635.00;;;;5052850;28;20256;-71
2022/11/16 09:12:27;;;;;;;0.50;0.50;;;11.20;99.90;12.00;99625.00;;;;5048281;28;20549;-71
2022/11/16 09:14:56;;;;;;;1.47;1.37;;;11.40;99.90;11.50;99626.00;;;;5052506;28;20186;-68
2022/11/16 09:17:25;;;;;;;1.73;1.17;;;11.50;99.90;12.10;99632.00;;;;5038453;28;20195;-70
2022/11/16 09:19:56;;;;;;;3.80;0.57;;;11.70;99.90;11.80;99640.00;;;;5036339;28;20190;-71
2022/11/16 09:22:22;;;;;;;0.60;0.60;;;11.70;99.90;11.60;99641.00;;;;5052828;28;20183;-71
2022/11/16 09:24:48;;;;;;;0.60;0.60;;;11.60;99.90;11.80;99628.00;;;;5052398;28;20550;-71
2022/11/16 09:27:15;;;;;;;0.60;0.60;;;11.80;99.90;11.70;99625.00;;;;5035549;28;20610;-71
2022/11/16 09:29:42;;;;;;;0.40;0.40;;;11.70;99.90;12.00;99627.00;;;;5049938;28;20253;-71
2022/11/16 09:32:08;;;;;;;1.27;0.83;;;11.70;99.90;12.10;99621.00;;;;5053779;28;20323;-71
2022/11/16 09:34:35;;;;;;;11.20;1.27;;;11.80;99.90;11.80;99629.00;;;;5061704;28;20205;-71
2022/11/16 09:37:03;;;;;;;0.70;0.70;;;11.70;99.90;11.20;99634.00;;;;5061281;28;20194;-71
2022/11/16 09:39:33;;;;;;;0.63;0.63;;;11.30;99.90;11.20;99642.00;;;;5061894;28;20194;-71
2022/11/16 09:42:22;;;;;;;0.50;0.50;;;11.10;99.90;11.10;99591.00;;;;5061758;28;20225;-71
2022/11/16 09:45:08;;;;;;;4.57;1.13;;;11.00;99.90;11.40;99637.00;;;;5068240;28;20576;-70
2022/11/16 09:47:37;;;;;;;3.50;0.60;;;11.10;99.90;10.90;99650.00;;;;5061317;28;20184;-71
2022/11/16 09:50:09;;;;;;;1.27;0.60;;;10.90;99.90;11.00;99654.00;;;;5058354;28;20183;-72
2022/11/16 09:52:51;;;;;;;0.80;0.63;;;10.90;99.90;11.00;99648.00;;;;5061391;28;20288;-73
2022/11/16 09:55:47;;;;;;;5.00;4.67;;;10.90;99.90;10.80;99655.00;;;;5060302;28;20182;-72
2022/11/16 09:58:28;;;;;;;0.70;0.70;;;10.90;99.90;10.70;99661.00;;;;5061362;28;20744;-72
2022/11/16 10:01:06;;;;;;;3.90;1.00;;;10.80;99.90;10.80;99657.00;;;;5044023;28;20197;-72
2022/11/16 10:03:42;;;;;;;3.03;0.67;;;10.80;99.90;10.80;99622.00;;;;5077537;28;20219;-72
2022/11/16 10:06:38;;;;;;;1.37;0.93;;;10.70;99.90;10.90;99661.00;;;;5060713;28;20177;-70
2022/11/16 10:09:25;;;;;;;0.83;0.67;;;10.70;99.90;11.00;99665.00;;;;5038898;28;20194;-70
2022/11/16 10:12:21;;;;;;;3.83;2.23;;;10.90;99.90;10.80;99602.00;;;;5010119;28;20203;-71
2022/11/16 10:15:19;;;;;;;0.37;0.37;;;10.80;99.90;11.30;99653.00;;;;5048562;28;20179;-74
2022/11/16 10:18:31;;;;;;;0.37;0.30;;;10.90;99.90;11.50;99655.00;;;;5039563;28;20195;-72
2022/11/16 10:33:47;;;;;;;1.37;0.47;;;10.60;99.90;10.70;99643.00;;;;5174281;27;20935;-72
2022/11/16 10:36:15;;;;;;;0.57;0.57;;;10.70;99.90;11.20;99597.00;;;;5128931;27;20205;-73
2022/11/16 10:38:42;;;;;;;0.60;0.60;;;10.90;99.90;11.70;99629.00;;;;5158904;27;20278;-73
2022/11/16 10:45:03;;;;;;;0.63;0.63;;;11.60;99.90;12.30;99630.00;;;;5132444;27;20263;-73
2022/11/16 10:47:45;;;;;;;0.30;0.30;;;12.00;99.90;13.20;99628.00;;;;5123663;27;20184;-73
2022/11/16 10:50:49;;;;;;;0.40;0.40;;;12.50;99.90;13.10;99620.00;;;;5167777;27;20182;-75
2022/11/16 10:53:28;;;;;;;0.40;0.40;;;12.70;99.90;12.40;99611.00;;;;5142524;27;20218;-75
2022/11/16 10:56:22;;;;;;;0.50;0.50;;;12.50;99.90;12.70;99617.00;;;;5143143;27;20250;-74
2022/11/16 10:59:05;;;;;;;0.90;0.53;;;12.50;99.90;12.70;99613.00;;;;5162027;27;20198;-75
2022/11/16 11:01:42;;;;;;;1.40;0.93;;;12.60;99.90;12.40;99612.00;;;;5123411;27;20207;-74
2022/11/16 11:04:21;;;;;;;0.50;0.50;;;12.40;99.90;12.70;99567.00;;;;5142137;27;20238;-75
2022/11/16 11:06:55;;;;;;;0.53;0.53;;;12.50;99.90;13.50;99608.00;;;;5142549;27;20276;-74
2022/11/16 11:09:50;;;;;;;4.70;1.70;;;12.90;99.90;13.60;99618.00;;;;5123657;27;20212;-75
2022/11/16 11:15:44;;;;;;;1.20;0.50;;;13.10;99.90;13.10;99607.00;;;;5147806;27;20198;-74
2022/11/16 11:18:30;;;;;;;3.60;1.20;;;12.90;99.90;12.80;99587.00;;;;5133215;27;20191;-78
2022/11/16 11:21:19;;;;;;;3.60;0.80;;;12.60;99.90;12.90;99610.00;;;;5139374;27;20182;-77
2022/11/16 11:24:00;;;;;;;2.23;1.87;;;12.70;99.90;12.50;99546.00;;;;5149939;27;20190;-75
2022/11/16 11:26:57;;;;;;;0.70;0.70;;;12.60;99.90;12.40;99555.00;;;;5147962;27;20197;-73
2022/11/16 11:29:40;;;;;;;3.43;1.27;;;12.40;99.90;12.20;99603.00;;;;5116835;27;20196;-68
2022/11/16 11:33:00;;;;;;;1.10;1.00;;;12.20;99.90;12.60;99538.00;;;;5140060;27;20295;-69
2022/11/16 11:35:50;;;;;;;0.30;0.30;;;12.30;99.90;13.20;99594.00;;;;5112683;27;20601;-74
2022/11/16 11:39:02;;;;;;;0.33;0.33;;;12.50;99.90;13.50;99592.00;;;;5156542;27;20190;-78
2022/11/16 11:42:02;;;;;;;0.40;0.40;;;12.80;99.90;13.50;99585.00;;;;5135572;27;20209;-72
2022/11/16 11:45:02;;;;;;;0.30;0.30;;;13.00;99.90;13.50;99591.00;;;;5115031;27;20205;-79
2022/11/16 11:47:56;;;;;;;16.53;1.13;;;13.30;99.90;13.00;99574.00;;;;5116377;27;20278;-72
2022/11/16 11:50:56;;;;;;;0.50;0.50;;;13.10;99.90;13.50;99569.00;;;;5136607;27;20183;-77
2022/11/16 11:54:01;;;;;;;0.83;0.80;;;13.20;99.90;13.30;99528.00;;;;5126707;27;20184;-73
2022/11/16 11:56:36;;;;;;;0.77;0.70;;;13.00;99.90;12.90;99573.00;;;;5106915;27;20203;-71
2022/11/16 11:59:28;;;;;;;1.53;0.67;;;12.80;99.90;13.00;99570.00;;;;5130812;27;20187;-79
2022/11/16 12:02:09;;;;;;;0.73;0.73;;;12.70;99.90;12.60;99527.00;;;;5129615;27;20179;-75
2022/11/16 12:04:57;;;;;;;1.90;0.80;;;12.50;99.90;12.60;99538.00;;;;5122262;27;20187;-79
2022/11/16 12:07:41;;;;;;;0.40;0.40;;;12.40;99.90;12.70;99589.00;;;;5140390;27;20203;-81
2022/11/16 12:10:45;;;;;;;1.07;0.97;;;12.40;99.90;12.70;99577.00;;;;5129696;27;20655;-80
2022/11/16 12:14:01;;;;;;;5.30;1.43;;;12.40;99.90;12.60;99579.00;;;;5139504;27;20194;-81
2022/11/16 12:17:06;;;;;;;0.63;0.63;;;12.40;99.90;12.70;99577.00;;;;5090806;27;20625;-80
2022/11/16 12:20:01;;;;;;;0.63;0.40;;;12.40;99.90;12.90;99565.00;;;;5104008;27;20192;-79
2022/11/16 12:22:41;;;;;;;0.50;0.50;;;12.50;99.90;13.00;99557.00;;;;5118608;27;20202;-80
2022/11/16 12:25:35;;;;;;;0.50;0.50;;;12.50;99.90;12.50;99550.00;;;;5136540;27;20211;-80
2022/11/16 12:28:39;;;;;;;5.00;2.00;;;12.40;99.90;12.50;99565.00;;;;5136375;27;20182;-80
2022/11/16 12:31:26;;;;;;;0.30;0.30;;;12.20;99.90;12.20;99568.00;;;;5135292;27;20206;-77
2022/11/16 12:34:46;;;;;;;0.93;0.50;;;12.10;99.90;12.00;99567.00;;;;5119008;27;20182;-83